Heloise — 3FLA7 — position and weather

sailwx.info

Track history (hours):
 
Tides and Currents Weather Stations Pressure Air Temp Water Temp Dewpoint Dewpoint Depression Visibility Wind Speed Wind Dir Waves Ship Positions

Heloise

Last reported at 2014-Sep-28 11:33 UTC. Time now 2014-Oct-01 18:19 UTC.
Position N 43°60' W 076°32'.

Length 186 m; draft 8 m.

Type: Cargo ship. MMSI: 352302000.

Date/timePositionNaut miles runAvg speedWind from/ knotsBaromVisibWave heightAir tempDewpointWater temp
2014-Sep-28 11:33N 43°60' W 076°32'1211.8
2014-Sep-28 10:33N 44°08' W 076°20'1110.6
2014-Sep-28 09:33N 44°14' W 076°08'87 7.0
2014-Sep-27 21:11N 45°06' W 074°30'6 9.7
2014-Sep-27 20:34N 45°09' W 074°23'1110.6
2014-Sep-27 19:33N 45°14' W 074°09'8 7.8
2014-Sep-27 18:33N 45°15' W 073°58'4 3.9
2014-Sep-27 17:34N 45°19' W 073°55'2 1.6
2014-Sep-27 16:34N 45°20' W 073°54'9 9.3
2014-Sep-27 15:34N 45°25' W 073°43'6 6.0
2014-Sep-27 14:34N 45°24' W 073°34'1 0.7
2014-Sep-27 13:34N 45°24' W 073°33'3 2.8
2014-Sep-27 12:34N 45°26' W 073°30'4 3.6
2014-Sep-27 11:33N 45°30' W 073°31'3 2.7
2014-Sep-27 10:34N 45°32' W 073°32'8 8.4
2014-Sep-27 09:33N 45°40' W 073°28'9 9.0
2014-Sep-27 08:34N 45°48' W 073°20'9 9.3
2014-Sep-27 07:34N 45°55' W 073°13'21 8.9
2014-Sep-27 05:12N 46°12' W 072°53'710.6
2014-Sep-27 04:33N 46°15' W 072°45'9 8.8
2014-Sep-27 03:33N 46°19' W 072°33'1010.2
2014-Sep-27 02:33N 46°25' W 072°22'1010.0
2014-Sep-27 01:32N 46°32' W 072°11'  
Track history (hours):
 
Tides and Currents Weather Stations Pressure Air Temp Water Temp Dewpoint Dewpoint Depression Visibility Wind Speed Wind Dir Waves Ship Positions

Heloise

Last reported at 2014-Sep-28 11:33 UTC. Time now 2014-Oct-01 18:19 UTC.
Position N 43°60' W 076°32'.

Length 186 m; draft 8 m.

Type: Cargo ship. MMSI: 352302000.

Date/timePositionNaut miles runAvg speedWind from/ knotsBaromVisibWave heightAir tempDewpointWater temp
2014-Sep-28 11:33N 43°60' W 076°32'1211.8
2014-Sep-28 10:33N 44°08' W 076°20'1110.6
2014-Sep-28 09:33N 44°14' W 076°08'87 7.0
2014-Sep-27 21:11N 45°06' W 074°30'6 9.7
2014-Sep-27 20:34N 45°09' W 074°23'1110.6
2014-Sep-27 19:33N 45°14' W 074°09'8 7.8
2014-Sep-27 18:33N 45°15' W 073°58'4 3.9
2014-Sep-27 17:34N 45°19' W 073°55'2 1.6
2014-Sep-27 16:34N 45°20' W 073°54'9 9.3
2014-Sep-27 15:34N 45°25' W 073°43'6 6.0
2014-Sep-27 14:34N 45°24' W 073°34'1 0.7
2014-Sep-27 13:34N 45°24' W 073°33'3 2.8
2014-Sep-27 12:34N 45°26' W 073°30'4 3.6
2014-Sep-27 11:33N 45°30' W 073°31'3 2.7
2014-Sep-27 10:34N 45°32' W 073°32'8 8.4
2014-Sep-27 09:33N 45°40' W 073°28'9 9.0
2014-Sep-27 08:34N 45°48' W 073°20'9 9.3
2014-Sep-27 07:34N 45°55' W 073°13'21 8.9
2014-Sep-27 05:12N 46°12' W 072°53'710.6
2014-Sep-27 04:33N 46°15' W 072°45'9 8.8
2014-Sep-27 03:33N 46°19' W 072°33'1010.2
2014-Sep-27 02:33N 46°25' W 072°22'1010.0
2014-Sep-27 01:32N 46°32' W 072°11'  

Dump ship's entire track history